createdAt,value
2022-10-28T00:02:01.107Z,15.01
2022-10-28T00:04:28.033Z,14.99
2022-10-28T00:06:54.833Z,15.02
2022-10-28T00:09:21.720Z,15.05
2022-10-28T00:11:50.012Z,15.00
2022-10-28T00:14:20.040Z,15.05
2022-10-28T00:16:50.708Z,15.05
2022-10-28T00:19:30.273Z,15.03
2022-10-28T00:22:08.056Z,15.02
2022-10-28T00:24:34.891Z,15.03
2022-10-28T00:27:09.940Z,15.01
2022-10-28T00:29:36.782Z,15.02
2022-10-28T00:32:10.501Z,15.01
2022-10-28T00:34:37.699Z,14.98
2022-10-28T00:37:08.332Z,15.00
2022-10-28T00:39:35.196Z,15.00
2022-10-28T00:42:04.818Z,14.99
2022-10-28T00:44:37.590Z,14.98
2022-10-28T00:47:19.959Z,14.97
2022-10-28T00:50:08.035Z,14.98
2022-10-28T00:52:37.723Z,14.95
2022-10-28T00:55:24.446Z,14.98
2022-10-28T00:58:01.182Z,14.96
2022-10-28T01:00:32.523Z,14.98
2022-10-28T01:03:05.529Z,14.98
2022-10-28T01:05:39.728Z,14.96
2022-10-28T01:08:16.981Z,14.98
2022-10-28T01:11:28.399Z,14.98
2022-10-28T01:14:01.182Z,14.98
2022-10-28T01:16:56.597Z,14.99
2022-10-28T01:19:54.495Z,14.98
2022-10-28T01:25:17.084Z,14.99
2022-10-28T01:28:14.353Z,14.99
2022-10-28T01:31:15.788Z,15.00
2022-10-28T01:34:08.852Z,15.00
2022-10-28T01:37:00.999Z,15.00
2022-10-28T01:39:41.862Z,15.00
2022-10-28T01:42:33.402Z,14.99
2022-10-28T01:45:14.530Z,15.00
2022-10-28T01:48:15.094Z,15.02
2022-10-28T01:51:13.773Z,15.01
2022-10-28T01:53:43.094Z,15.01
2022-10-28T01:56:26.402Z,15.02
2022-10-28T01:59:00.687Z,15.02
2022-10-28T02:01:36.960Z,15.01
2022-10-28T02:04:09.013Z,15.00
2022-10-28T02:06:38.920Z,15.01
2022-10-28T02:09:38.207Z,15.00
2022-10-28T02:12:31.426Z,15.00
2022-10-28T02:15:30.179Z,14.93
2022-10-28T02:18:12.566Z,14.95
2022-10-28T02:21:17.901Z,14.95
2022-10-28T02:24:03.094Z,14.92
2022-10-28T02:27:01.181Z,14.93
2022-10-28T02:29:55.678Z,14.93
2022-10-28T02:32:37.562Z,14.93
2022-10-28T02:35:28.939Z,14.90
2022-10-28T02:37:58.800Z,14.90
2022-10-28T02:40:49.062Z,14.92
2022-10-28T02:43:37.836Z,14.92
2022-10-28T02:46:05.457Z,14.90
2022-10-28T02:48:43.393Z,14.88
2022-10-28T02:51:35.065Z,14.88
2022-10-28T02:54:50.967Z,14.88
2022-10-28T02:57:22.842Z,14.88
2022-10-28T03:00:17.155Z,14.88
2022-10-28T03:02:44.193Z,14.86
2022-10-28T03:05:11.128Z,14.86
2022-10-28T03:07:38.100Z,14.86
2022-10-28T03:10:05.332Z,14.86
2022-10-28T03:12:32.780Z,14.84
2022-10-28T03:15:01.338Z,14.82
2022-10-28T03:17:31.005Z,14.80
2022-10-28T03:19:57.903Z,14.79
2022-10-28T03:22:24.850Z,14.80
2022-10-28T03:24:51.932Z,14.74
2022-10-28T03:27:18.911Z,14.77
2022-10-28T03:29:47.433Z,14.81
2022-10-28T03:32:14.377Z,14.80
2022-10-28T03:34:41.380Z,14.76
2022-10-28T03:37:08.234Z,14.78
2022-10-28T03:39:41.274Z,14.76
2022-10-28T03:42:08.143Z,14.73
2022-10-28T03:44:38.507Z,14.74
2022-10-28T03:47:05.359Z,14.72
2022-10-28T03:49:32.495Z,14.68
2022-10-28T03:51:59.453Z,14.72
2022-10-28T03:54:27.874Z,14.70
2022-10-28T03:56:54.770Z,14.70
2022-10-28T03:59:31.249Z,14.70
2022-10-28T04:02:03.582Z,14.69
2022-10-28T04:04:30.770Z,14.67
2022-10-28T04:06:57.939Z,14.61
2022-10-28T04:09:24.768Z,14.65
2022-10-28T04:11:54.134Z,14.63
2022-10-28T04:14:30.409Z,14.61
2022-10-28T04:16:57.355Z,14.61
2022-10-28T04:19:29.724Z,14.58
2022-10-28T04:21:56.609Z,14.55
2022-10-28T04:24:23.377Z,14.55
2022-10-28T04:26:50.229Z,14.52
2022-10-28T04:29:17.006Z,14.51
2022-10-28T04:31:45.468Z,14.48
2022-10-28T04:34:14.453Z,14.50
2022-10-28T04:36:41.390Z,14.47
2022-10-28T04:39:09.782Z,14.50
2022-10-28T04:41:36.706Z,14.54
2022-10-28T04:44:03.635Z,14.53
2022-10-28T04:46:30.534Z,14.52
2022-10-28T04:48:57.417Z,14.50
2022-10-28T04:51:24.362Z,14.49
2022-10-28T04:53:52.219Z,14.43
2022-10-28T04:56:19.031Z,14.46
2022-10-28T04:58:47.263Z,14.46
2022-10-28T05:01:14.468Z,14.44
2022-10-28T05:03:41.390Z,14.42
2022-10-28T05:06:08.277Z,14.43
2022-10-28T05:08:36.989Z,14.43
2022-10-28T05:11:03.882Z,14.39
2022-10-28T05:13:30.757Z,14.40
2022-10-28T05:15:57.676Z,14.41
2022-10-28T05:18:24.619Z,14.40
2022-10-28T05:20:54.907Z,14.39
2022-10-28T05:23:25.789Z,14.40
2022-10-28T05:25:55.546Z,14.34
2022-10-28T05:28:22.379Z,14.38
2022-10-28T05:30:49.312Z,14.38
2022-10-28T05:33:16.254Z,14.38
2022-10-28T05:35:43.262Z,14.38
2022-10-28T05:38:10.381Z,14.36
2022-10-28T05:40:37.365Z,14.36
2022-10-28T05:43:04.487Z,14.37
2022-10-28T05:45:32.022Z,14.36
2022-10-28T05:47:58.935Z,14.34
2022-10-28T05:50:25.822Z,14.35
2022-10-28T05:52:55.147Z,14.36
2022-10-28T05:55:24.704Z,14.37
2022-10-28T05:57:53.379Z,14.33
2022-10-28T06:00:22.833Z,14.34
2022-10-28T06:02:50.026Z,14.34
2022-10-28T06:05:17.558Z,14.33
2022-10-28T06:07:44.560Z,14.31
2022-10-28T06:10:15.638Z,14.35
2022-10-28T06:12:41.050Z,14.34
2022-10-28T06:15:08.366Z,14.35
2022-10-28T06:17:35.683Z,14.35
2022-10-28T06:20:03.512Z,14.35
2022-10-28T06:22:31.014Z,14.34
2022-10-28T06:24:57.898Z,14.33
2022-10-28T06:27:24.826Z,14.36
2022-10-28T06:29:51.835Z,14.34
2022-10-28T06:32:18.651Z,14.36
2022-10-28T06:34:45.570Z,14.32
2022-10-28T06:37:12.867Z,14.32
2022-10-28T06:39:42.070Z,14.35
2022-10-28T06:42:10.129Z,14.33
2022-10-28T06:44:37.128Z,14.29
2022-10-28T06:47:05.666Z,14.33
2022-10-28T06:49:32.566Z,14.31
2022-10-28T06:51:59.448Z,14.35
2022-10-28T06:54:26.397Z,14.32
2022-10-28T06:56:53.322Z,14.30
2022-10-28T06:59:20.278Z,14.32
2022-10-28T07:01:47.386Z,14.29
2022-10-28T07:04:14.644Z,14.31
2022-10-28T07:06:41.618Z,14.35
2022-10-28T07:09:13.454Z,14.37
2022-10-28T07:11:46.183Z,14.37
2022-10-28T07:14:13.149Z,14.36
2022-10-28T07:16:40.214Z,14.34
2022-10-28T07:19:07.088Z,14.34
2022-10-28T07:21:34.701Z,14.35
2022-10-28T07:24:02.200Z,14.34
2022-10-28T07:26:29.419Z,14.31
2022-10-28T07:28:56.342Z,14.34
2022-10-28T07:31:23.252Z,14.36
2022-10-28T07:33:53.804Z,14.32
2022-10-28T07:36:22.212Z,14.37
2022-10-28T07:38:51.782Z,14.40
2022-10-28T07:41:21.449Z,14.40
2022-10-28T07:43:49.060Z,14.45
2022-10-28T07:46:17.025Z,14.44
2022-10-28T07:48:43.954Z,14.46
2022-10-28T07:51:13.619Z,14.46
2022-10-28T07:53:41.549Z,14.50
2022-10-28T07:56:13.243Z,14.52
2022-10-28T07:58:41.627Z,14.55
2022-10-28T08:01:10.528Z,14.55
2022-10-28T08:03:38.871Z,14.57
2022-10-28T08:06:17.952Z,14.62
2022-10-28T08:08:46.578Z,14.66
2022-10-28T08:11:16.279Z,14.66
2022-10-28T08:13:43.220Z,14.71
2022-10-28T08:16:10.490Z,14.72
2022-10-28T08:18:38.703Z,14.73
2022-10-28T08:21:07.227Z,14.75
2022-10-28T08:23:34.431Z,14.73
2022-10-28T08:26:01.651Z,14.78
2022-10-28T08:28:28.802Z,14.75
2022-10-28T08:31:08.604Z,14.81
2022-10-28T08:33:38.080Z,14.83
2022-10-28T08:36:06.101Z,14.85
2022-10-28T08:38:33.397Z,14.87
2022-10-28T08:41:03.302Z,14.88
2022-10-28T08:44:07.675Z,14.93
2022-10-28T08:46:37.657Z,14.94
2022-10-28T08:49:12.207Z,14.96
2022-10-28T08:51:44.576Z,15.01
2022-10-28T08:54:37.963Z,15.05
2022-10-28T08:57:11.067Z,15.08
2022-10-28T08:59:41.795Z,15.13
2022-10-28T09:02:11.693Z,15.17
2022-10-28T09:04:41.808Z,15.21
2022-10-28T09:07:17.342Z,15.25
2022-10-28T09:09:49.404Z,15.32
2022-10-28T09:12:23.296Z,15.30
2022-10-28T09:15:02.331Z,15.40
2022-10-28T09:18:07.971Z,15.46
2022-10-28T09:20:54.236Z,15.49
2022-10-28T09:23:23.687Z,15.55
2022-10-28T09:26:15.219Z,15.60
2022-10-28T09:28:50.728Z,15.65
2022-10-28T09:31:30.762Z,15.71
2022-10-28T09:34:17.664Z,15.73
2022-10-28T09:37:24.406Z,15.83
2022-10-28T09:40:13.695Z,15.83
2022-10-28T09:42:51.594Z,15.90
2022-10-28T09:45:24.592Z,15.93
2022-10-28T09:48:03.096Z,15.98
2022-10-28T09:50:31.928Z,16.01
2022-10-28T09:53:06.323Z,16.06
2022-10-28T09:55:33.259Z,16.12
2022-10-28T09:58:00.246Z,16.14
2022-10-28T10:00:27.259Z,16.21
2022-10-28T10:02:59.967Z,16.26
2022-10-28T10:05:27.978Z,16.30
2022-10-28T10:07:56.799Z,16.35
2022-10-28T10:10:34.938Z,16.38
2022-10-28T10:13:04.805Z,16.43
2022-10-28T10:15:36.806Z,16.45
2022-10-28T10:18:06.172Z,16.50
2022-10-28T10:20:49.385Z,16.55
2022-10-28T10:23:37.456Z,16.58
2022-10-28T10:26:11.292Z,16.61
2022-10-28T10:28:51.470Z,16.64
2022-10-28T10:31:19.761Z,16.71
2022-10-28T10:33:50.999Z,16.74
2022-10-28T10:36:21.277Z,16.77
2022-10-28T10:38:54.360Z,16.84
2022-10-28T10:41:37.944Z,16.85
2022-10-28T10:44:23.226Z,16.90
2022-10-28T10:47:06.522Z,16.93
2022-10-28T10:49:37.540Z,16.98
2022-10-28T10:52:20.014Z,17.02
2022-10-28T10:55:04.766Z,17.07
2022-10-28T10:57:33.477Z,17.12
2022-10-28T11:00:00.996Z,17.15
2022-10-28T11:02:35.148Z,17.18
2022-10-28T11:05:05.885Z,17.21
2022-10-28T11:07:33.348Z,17.28
2022-10-28T11:10:01.340Z,17.31
2022-10-28T11:12:36.254Z,17.34
2022-10-28T11:15:22.460Z,17.38
2022-10-28T11:18:16.960Z,17.42
2022-10-28T11:20:59.176Z,17.47
2022-10-28T11:24:09.117Z,17.54
2022-10-28T11:26:42.950Z,17.60
2022-10-28T11:29:19.038Z,17.56
2022-10-28T11:32:11.032Z,17.68
2022-10-28T11:34:55.912Z,17.70
2022-10-28T11:37:47.605Z,17.76
2022-10-28T11:40:30.982Z,17.78
2022-10-28T11:43:25.739Z,17.83
2022-10-28T11:45:59.599Z,17.86
2022-10-28T11:48:35.869Z,17.90
2022-10-28T11:51:20.665Z,17.95
2022-10-28T11:54:00.821Z,17.96
2022-10-28T11:56:46.606Z,17.99
2022-10-28T11:59:39.600Z,18.07
2022-10-28T12:02:25.262Z,18.11
2022-10-28T12:05:10.289Z,18.14
2022-10-28T12:07:58.885Z,18.19
2022-10-28T12:10:54.166Z,18.23
2022-10-28T12:13:36.144Z,18.26
2022-10-28T12:16:15.000Z,18.31
2022-10-28T12:18:50.856Z,18.38
2022-10-28T12:21:30.250Z,18.40
2022-10-28T12:23:59.044Z,18.44
2022-10-28T12:26:40.929Z,18.50
2022-10-28T12:29:23.900Z,18.52
2022-10-28T12:32:05.087Z,18.57
2022-10-28T12:34:40.817Z,18.55
2022-10-28T12:37:17.334Z,18.62
2022-10-28T12:39:59.429Z,18.70
2022-10-28T12:42:34.361Z,18.73
2022-10-28T12:45:04.990Z,18.76
2022-10-28T12:47:50.922Z,18.78
2022-10-28T12:50:25.685Z,18.80
2022-10-28T12:52:58.992Z,18.85
2022-10-28T12:55:33.591Z,18.89
2022-10-28T12:58:06.634Z,18.92
2022-10-28T13:00:40.441Z,18.94
2022-10-28T13:03:12.425Z,18.96
2022-10-28T13:05:52.052Z,18.99
2022-10-28T13:08:24.815Z,19.03
2022-10-28T13:11:19.630Z,19.05
2022-10-28T13:14:16.025Z,19.06
2022-10-28T13:17:11.174Z,19.10
2022-10-28T13:20:13.606Z,19.13
2022-10-28T13:23:26.764Z,19.15
2022-10-28T13:25:58.591Z,19.17
2022-10-28T13:28:32.688Z,19.19
2022-10-28T13:31:03.448Z,19.22
2022-10-28T13:33:31.429Z,19.24
2022-10-28T13:36:17.611Z,19.25
2022-10-28T13:38:54.906Z,19.25
2022-10-28T13:41:42.063Z,19.25
2022-10-28T13:44:26.510Z,19.29
2022-10-28T13:46:59.563Z,19.29
2022-10-28T13:49:28.071Z,19.31
2022-10-28T13:52:23.039Z,19.31
2022-10-28T13:54:56.126Z,19.32
2022-10-28T13:57:26.783Z,19.30
2022-10-28T14:00:21.490Z,19.33
2022-10-28T14:03:07.014Z,19.29
2022-10-28T14:05:37.049Z,19.31
2022-10-28T14:08:20.265Z,19.28
2022-10-28T14:11:07.822Z,19.30
2022-10-28T14:13:39.197Z,19.28
2022-10-28T14:16:29.242Z,19.28
2022-10-28T14:19:11.271Z,19.26
2022-10-28T14:21:51.419Z,19.25
2022-10-28T14:24:42.599Z,19.25
2022-10-28T14:27:09.984Z,19.24
2022-10-28T14:30:10.674Z,19.21
2022-10-28T14:32:48.578Z,19.22
2022-10-28T14:35:15.460Z,19.22
2022-10-28T14:38:09.281Z,19.20
2022-10-28T14:41:04.667Z,19.18
2022-10-28T14:43:48.667Z,19.18
2022-10-28T14:46:36.856Z,19.15
2022-10-28T14:49:14.029Z,19.14
2022-10-28T14:51:42.478Z,19.12
2022-10-28T14:54:15.501Z,19.08
2022-10-28T14:56:43.308Z,19.10
2022-10-28T14:59:19.361Z,19.08
2022-10-28T15:02:07.490Z,19.06
2022-10-28T15:04:34.478Z,19.04
2022-10-28T15:07:01.405Z,19.04
2022-10-28T15:09:30.525Z,19.00
2022-10-28T15:12:01.262Z,18.98
2022-10-28T15:15:00.497Z,18.99
2022-10-28T15:17:31.049Z,18.96
2022-10-28T15:20:00.201Z,18.96
2022-10-28T15:22:30.817Z,18.94
2022-10-28T15:25:12.807Z,18.93
2022-10-28T15:27:41.394Z,18.92
2022-10-28T15:30:20.942Z,18.89
2022-10-28T15:32:47.869Z,18.83
2022-10-28T15:35:27.032Z,18.80
2022-10-28T15:38:00.698Z,18.78
2022-10-28T15:40:33.180Z,18.76
2022-10-28T15:43:02.648Z,18.74
2022-10-28T15:45:32.143Z,18.67
2022-10-28T15:48:00.694Z,18.70
2022-10-28T15:50:35.496Z,18.67
2022-10-28T15:53:11.373Z,18.64
2022-10-28T15:56:02.872Z,18.61
2022-10-28T15:59:00.144Z,18.58
2022-10-28T16:01:45.227Z,18.53
2022-10-28T16:04:18.325Z,18.50
2022-10-28T16:06:46.363Z,18.47
2022-10-28T16:09:17.038Z,18.43
2022-10-28T16:11:49.107Z,18.41
2022-10-28T16:14:38.534Z,18.38
2022-10-28T16:17:15.232Z,18.31
2022-10-28T16:19:59.029Z,18.28
2022-10-28T16:22:28.196Z,18.24
2022-10-28T16:24:55.233Z,18.21
2022-10-28T16:27:25.079Z,18.18
2022-10-28T16:29:52.135Z,18.13
2022-10-28T16:32:33.917Z,18.08
2022-10-28T16:35:02.812Z,18.07
2022-10-28T16:37:32.329Z,18.02
2022-10-28T16:39:59.395Z,18.00
2022-10-28T16:42:27.259Z,17.97
2022-10-28T16:44:54.314Z,17.93
2022-10-28T16:47:25.622Z,17.90
2022-10-28T16:49:57.145Z,17.83
2022-10-28T16:52:30.508Z,17.81
2022-10-28T16:54:58.323Z,17.78
2022-10-28T16:57:26.220Z,17.73
2022-10-28T16:59:53.759Z,17.63
2022-10-28T17:02:40.974Z,17.61
2022-10-28T17:05:19.831Z,17.53
2022-10-28T17:07:46.885Z,17.45
2022-10-28T17:10:14.393Z,17.37
2022-10-28T17:12:41.353Z,17.32
2022-10-28T17:15:09.233Z,17.27
2022-10-28T17:17:36.207Z,17.19
2022-10-28T17:20:04.471Z,17.16
2022-10-28T17:22:31.623Z,17.10
2022-10-28T17:24:58.707Z,17.06
2022-10-28T17:27:25.712Z,17.03
2022-10-28T17:29:52.707Z,16.97
2022-10-28T17:32:19.737Z,16.92
2022-10-28T17:34:46.618Z,16.90
2022-10-28T17:37:13.534Z,16.84
2022-10-28T17:39:42.313Z,16.77
2022-10-28T17:42:09.681Z,16.70
2022-10-28T17:44:36.798Z,16.65
2022-10-28T17:47:03.903Z,16.63
2022-10-28T17:49:32.700Z,16.55
2022-10-28T17:51:59.842Z,16.51
2022-10-28T17:54:28.104Z,16.47
2022-10-28T17:56:55.003Z,16.42
2022-10-28T17:59:21.983Z,16.37
2022-10-28T18:01:49.085Z,16.33
2022-10-28T18:04:15.931Z,16.27
2022-10-28T18:06:42.835Z,16.18
2022-10-28T18:09:11.928Z,16.15
2022-10-28T18:11:39.971Z,16.07
2022-10-28T18:14:06.854Z,16.03
2022-10-28T18:16:36.621Z,16.01
2022-10-28T18:19:07.511Z,15.98
2022-10-28T18:21:35.263Z,15.93
2022-10-28T18:24:05.092Z,15.89
2022-10-28T18:26:34.316Z,15.86
2022-10-28T18:29:04.102Z,15.82
2022-10-28T18:31:33.293Z,15.79
2022-10-28T18:34:01.440Z,15.77
2022-10-28T18:36:30.810Z,15.74
2022-10-28T18:38:58.115Z,15.69
2022-10-28T18:41:27.340Z,15.66
2022-10-28T18:43:55.727Z,15.66
2022-10-28T18:46:23.158Z,15.64
2022-10-28T18:48:50.182Z,15.60
2022-10-28T18:51:17.778Z,15.59
2022-10-28T18:53:48.793Z,15.59
2022-10-28T18:56:18.423Z,15.58
2022-10-28T18:58:45.435Z,15.56
2022-10-28T19:01:14.642Z,15.55
2022-10-28T19:03:42.297Z,15.53
2022-10-28T19:06:14.797Z,15.47
2022-10-28T19:08:42.350Z,15.44
2022-10-28T19:11:13.436Z,15.42
2022-10-28T19:13:44.146Z,15.37
2022-10-28T19:18:43.149Z,15.28
2022-10-28T19:21:14.903Z,15.24
2022-10-28T19:23:42.839Z,15.19
2022-10-28T19:26:11.437Z,15.19
2022-10-28T19:28:43.500Z,15.17
2022-10-28T19:31:14.050Z,15.14
2022-10-28T19:33:43.175Z,15.13
2022-10-28T19:36:13.139Z,15.12
2022-10-28T19:38:40.299Z,15.11
2022-10-28T19:41:13.174Z,15.07
2022-10-28T19:43:40.671Z,15.04
2022-10-28T19:46:15.802Z,15.05
2022-10-28T19:48:45.246Z,15.06
2022-10-28T19:51:15.309Z,15.02
2022-10-28T19:53:50.245Z,15.02
2022-10-28T19:56:19.531Z,15.00
2022-10-28T19:58:49.615Z,14.98
2022-10-28T20:01:17.680Z,14.98
2022-10-28T20:03:49.057Z,14.94
2022-10-28T20:06:17.648Z,14.98
2022-10-28T20:08:49.395Z,14.93
2022-10-28T20:11:25.812Z,14.94
2022-10-28T20:13:54.720Z,14.94
2022-10-28T20:16:22.598Z,14.90
2022-10-28T20:18:49.569Z,14.86
2022-10-28T20:21:18.576Z,14.88
2022-10-28T20:26:16.933Z,14.92
2022-10-28T20:28:43.857Z,14.90
2022-10-28T20:31:13.486Z,14.92
2022-10-28T20:34:04.775Z,14.92
2022-10-28T20:36:57.881Z,14.91
2022-10-28T20:39:30.145Z,14.85
2022-10-28T20:42:02.318Z,14.88
2022-10-28T20:44:30.094Z,14.88
2022-10-28T20:46:59.621Z,14.90
2022-10-28T20:49:30.221Z,14.87
2022-10-28T20:51:59.503Z,14.85
2022-10-28T20:54:29.913Z,14.85
2022-10-28T20:57:00.180Z,14.84
2022-10-28T20:59:36.637Z,14.84
2022-10-28T21:02:05.480Z,14.84
2022-10-28T21:04:32.592Z,14.83
2022-10-28T21:07:03.121Z,14.85
2022-10-28T21:09:32.462Z,14.82
2022-10-28T21:12:00.777Z,14.82
2022-10-28T21:14:41.187Z,14.77
2022-10-28T21:17:14.002Z,14.82
2022-10-28T21:19:41.985Z,14.82
2022-10-28T21:22:11.951Z,14.82
2022-10-28T21:24:39.868Z,14.80
2022-10-28T21:27:15.296Z,14.80
2022-10-28T21:29:46.027Z,14.80
2022-10-28T21:32:16.213Z,14.79
2022-10-28T21:34:44.610Z,14.67
2022-10-28T21:37:11.523Z,14.77
2022-10-28T21:39:39.796Z,14.73
2022-10-28T21:42:08.144Z,14.74
2022-10-28T21:44:42.871Z,14.76
2022-10-28T21:47:10.736Z,14.73
2022-10-28T21:49:41.743Z,14.73
2022-10-28T21:52:13.805Z,14.73
2022-10-28T21:54:44.364Z,14.71
2022-10-28T21:57:11.474Z,14.66
2022-10-28T21:59:38.403Z,14.65
2022-10-28T22:02:05.347Z,14.63
2022-10-28T22:04:35.076Z,14.63
2022-10-28T22:07:06.239Z,14.58
2022-10-28T22:09:35.035Z,14.55
2022-10-28T22:12:07.586Z,14.53
2022-10-28T22:14:36.116Z,14.52
2022-10-28T22:17:06.044Z,14.49
2022-10-28T22:19:32.967Z,14.43
2022-10-28T22:21:59.934Z,14.39
2022-10-28T22:24:28.971Z,14.40
2022-10-28T22:26:59.452Z,14.38
2022-10-28T22:29:28.329Z,14.34
2022-10-28T22:31:57.113Z,14.28
2022-10-28T22:34:27.778Z,14.29
2022-10-28T22:36:54.764Z,14.27
2022-10-28T22:39:25.184Z,14.26
2022-10-28T22:41:55.047Z,14.23
2022-10-28T22:44:23.888Z,14.20
2022-10-28T22:46:52.583Z,14.16
2022-10-28T22:49:22.459Z,14.15
2022-10-28T22:51:54.512Z,14.15
2022-10-28T22:54:25.238Z,14.12
2022-10-28T22:57:06.931Z,14.11
2022-10-28T22:59:34.799Z,14.07
2022-10-28T23:02:03.163Z,14.06
2022-10-28T23:04:31.739Z,14.04
2022-10-28T23:07:12.626Z,14.02
2022-10-28T23:09:41.239Z,14.00
2022-10-28T23:12:18.057Z,13.98
2022-10-28T23:15:09.975Z,13.95
2022-10-28T23:17:38.595Z,13.92
2022-10-28T23:20:10.288Z,13.90
2022-10-28T23:22:41.581Z,13.88
2022-10-28T23:25:12.566Z,13.86
2022-10-28T23:27:40.690Z,13.83
2022-10-28T23:30:15.026Z,13.82
2022-10-28T23:32:42.512Z,13.80
2022-10-28T23:35:11.639Z,13.74
2022-10-28T23:37:41.958Z,13.76
2022-10-28T23:40:12.043Z,13.71
2022-10-28T23:42:41.144Z,13.70
2022-10-28T23:45:12.345Z,13.68
2022-10-28T23:47:44.118Z,13.68
2022-10-28T23:50:16.944Z,13.67
2022-10-28T23:52:47.570Z,13.62
2022-10-28T23:55:16.224Z,13.66
2022-10-28T23:57:46.432Z,13.60
